sensor_id;sensor_type;location;lat;lon;timestamp;temperature;humidity
20957;DHT22;10637;47.970;7.830;2023-06-04T00:00:43;19.50;99.90
20957;DHT22;10637;47.970;7.830;2023-06-04T00:05:44;19.50;99.90
20957;DHT22;10637;47.970;7.830;2023-06-04T00:10:46;19.40;99.90
20957;DHT22;10637;47.970;7.830;2023-06-04T00:15:48;19.30;99.90
20957;DHT22;10637;47.970;7.830;2023-06-04T00:20:50;19.20;99.90
20957;DHT22;10637;47.970;7.830;2023-06-04T00:25:51;19.10;99.90
20957;DHT22;10637;47.970;7.830;2023-06-04T00:30:53;18.80;99.90
20957;DHT22;10637;47.970;7.830;2023-06-04T00:35:55;18.60;99.90
20957;DHT22;10637;47.970;7.830;2023-06-04T00:40:57;18.40;99.90
20957;DHT22;10637;47.970;7.830;2023-06-04T00:45:59;18.40;99.90
20957;DHT22;10637;47.970;7.830;2023-06-04T00:51:01;18.20;99.90
20957;DHT22;10637;47.970;7.830;2023-06-04T00:56:03;18.00;99.90
20957;DHT22;10637;47.970;7.830;2023-06-04T01:01:12;17.90;99.90
20957;DHT22;10637;47.970;7.830;2023-06-04T01:11:38;17.50;99.90
20957;DHT22;10637;47.970;7.830;2023-06-04T01:16:55;17.50;99.90
20957;DHT22;10637;47.970;7.830;2023-06-04T01:22:10;17.60;99.90
20957;DHT22;10637;47.970;7.830;2023-06-04T01:27:13;17.70;99.90
20957;DHT22;10637;47.970;7.830;2023-06-04T01:32:17;17.70;99.90
20957;DHT22;10637;47.970;7.830;2023-06-04T01:37:19;17.70;99.90
20957;DHT22;10637;47.970;7.830;2023-06-04T01:42:21;17.60;99.90
20957;DHT22;10637;47.970;7.830;2023-06-04T01:47:23;17.50;99.90
20957;DHT22;10637;47.970;7.830;2023-06-04T01:52:24;17.40;99.90
20957;DHT22;10637;47.970;7.830;2023-06-04T01:57:26;17.20;99.90
20957;DHT22;10637;47.970;7.830;2023-06-04T02:02:28;17.20;99.90
20957;DHT22;10637;47.970;7.830;2023-06-04T02:07:30;17.30;99.90
20957;DHT22;10637;47.970;7.830;2023-06-04T02:12:33;17.10;99.90
20957;DHT22;10637;47.970;7.830;2023-06-04T02:17:34;16.90;99.90
20957;DHT22;10637;47.970;7.830;2023-06-04T02:22:42;16.90;99.90
20957;DHT22;10637;47.970;7.830;2023-06-04T02:27:44;16.90;99.90
20957;DHT22;10637;47.970;7.830;2023-06-04T02:32:46;16.80;99.90
20957;DHT22;10637;47.970;7.830;2023-06-04T02:37:54;16.70;99.90
20957;DHT22;10637;47.970;7.830;2023-06-04T02:42:58;16.60;99.90
20957;DHT22;10637;47.970;7.830;2023-06-04T02:47:59;16.50;99.90
20957;DHT22;10637;47.970;7.830;2023-06-04T02:53:01;16.30;99.90
20957;DHT22;10637;47.970;7.830;2023-06-04T02:58:03;16.30;99.90
20957;DHT22;10637;47.970;7.830;2023-06-04T03:03:05;16.10;99.90
20957;DHT22;10637;47.970;7.830;2023-06-04T03:08:07;16.00;99.90
20957;DHT22;10637;47.970;7.830;2023-06-04T03:13:09;15.70;99.90
20957;DHT22;10637;47.970;7.830;2023-06-04T03:18:10;15.80;99.90
20957;DHT22;10637;47.970;7.830;2023-06-04T03:23:13;15.70;99.90
20957;DHT22;10637;47.970;7.830;2023-06-04T03:28:14;15.80;99.90
20957;DHT22;10637;47.970;7.830;2023-06-04T03:33:16;15.80;99.90
20957;DHT22;10637;47.970;7.830;2023-06-04T03:38:18;15.60;99.90
20957;DHT22;10637;47.970;7.830;2023-06-04T03:43:21;15.60;99.90
20957;DHT22;10637;47.970;7.830;2023-06-04T03:48:23;15.50;99.90
20957;DHT22;10637;47.970;7.830;2023-06-04T03:53:24;15.60;99.90
20957;DHT22;10637;47.970;7.830;2023-06-04T03:58:26;15.50;99.90
20957;DHT22;10637;47.970;7.830;2023-06-04T04:03:30;15.40;99.90
20957;DHT22;10637;47.970;7.830;2023-06-04T04:08:33;15.50;99.90
20957;DHT22;10637;47.970;7.830;2023-06-04T04:13:35;15.50;99.90
20957;DHT22;10637;47.970;7.830;2023-06-04T04:18:37;15.60;99.90
20957;DHT22;10637;47.970;7.830;2023-06-04T04:23:39;15.70;99.90
20957;DHT22;10637;47.970;7.830;2023-06-04T04:28:44;15.80;99.90
20957;DHT22;10637;47.970;7.830;2023-06-04T04:33:46;15.70;99.90
20957;DHT22;10637;47.970;7.830;2023-06-04T04:38:48;15.40;99.90
20957;DHT22;10637;47.970;7.830;2023-06-04T04:44:03;15.50;99.90
20957;DHT22;10637;47.970;7.830;2023-06-04T04:49:06;15.70;99.90
20957;DHT22;10637;47.970;7.830;2023-06-04T04:54:07;15.50;99.90
20957;DHT22;10637;47.970;7.830;2023-06-04T04:59:09;15.50;99.90
20957;DHT22;10637;47.970;7.830;2023-06-04T05:04:11;15.70;99.90
20957;DHT22;10637;47.970;7.830;2023-06-04T05:09:13;15.70;99.90
20957;DHT22;10637;47.970;7.830;2023-06-04T05:14:14;15.80;99.90
20957;DHT22;10637;47.970;7.830;2023-06-04T05:19:16;16.20;99.90
20957;DHT22;10637;47.970;7.830;2023-06-04T05:24:18;16.60;99.90
20957;DHT22;10637;47.970;7.830;2023-06-04T05:29:20;16.90;99.90
20957;DHT22;10637;47.970;7.830;2023-06-04T05:34:22;17.00;99.90
20957;DHT22;10637;47.970;7.830;2023-06-04T05:39:24;17.20;99.90
20957;DHT22;10637;47.970;7.830;2023-06-04T05:44:25;17.30;99.90
20957;DHT22;10637;47.970;7.830;2023-06-04T05:49:27;17.30;99.90
20957;DHT22;10637;47.970;7.830;2023-06-04T05:54:29;17.60;99.90
20957;DHT22;10637;47.970;7.830;2023-06-04T05:59:32;17.70;99.90
20957;DHT22;10637;47.970;7.830;2023-06-04T06:04:34;17.80;99.90
20957;DHT22;10637;47.970;7.830;2023-06-04T06:09:36;17.80;99.90
20957;DHT22;10637;47.970;7.830;2023-06-04T06:14:38;17.90;99.90
20957;DHT22;10637;47.970;7.830;2023-06-04T06:19:39;17.90;99.90
20957;DHT22;10637;47.970;7.830;2023-06-04T06:24:41;18.10;99.90
20957;DHT22;10637;47.970;7.830;2023-06-04T06:29:43;18.30;99.90
20957;DHT22;10637;47.970;7.830;2023-06-04T06:34:45;18.30;99.90
20957;DHT22;10637;47.970;7.830;2023-06-04T06:39:47;18.60;99.90
20957;DHT22;10637;47.970;7.830;2023-06-04T06:44:49;18.90;99.90
20957;DHT22;10637;47.970;7.830;2023-06-04T06:49:50;19.20;99.90
20957;DHT22;10637;47.970;7.830;2023-06-04T06:54:52;19.30;99.90
20957;DHT22;10637;47.970;7.830;2023-06-04T06:59:54;19.40;99.90
20957;DHT22;10637;47.970;7.830;2023-06-04T07:04:56;19.70;99.90
20957;DHT22;10637;47.970;7.830;2023-06-04T07:09:58;19.90;99.90
20957;DHT22;10637;47.970;7.830;2023-06-04T07:15:00;19.90;99.90
20957;DHT22;10637;47.970;7.830;2023-06-04T07:20:02;20.50;99.90
20957;DHT22;10637;47.970;7.830;2023-06-04T07:25:08;20.90;99.90
20957;DHT22;10637;47.970;7.830;2023-06-04T07:30:10;21.30;99.90
20957;DHT22;10637;47.970;7.830;2023-06-04T07:35:12;21.70;99.90
20957;DHT22;10637;47.970;7.830;2023-06-04T07:40:14;21.90;99.90
20957;DHT22;10637;47.970;7.830;2023-06-04T07:45:16;22.10;99.90
20957;DHT22;10637;47.970;7.830;2023-06-04T07:50:18;22.30;99.90
20957;DHT22;10637;47.970;7.830;2023-06-04T07:55:20;22.80;99.90
20957;DHT22;10637;47.970;7.830;2023-06-04T08:00:22;23.10;99.90
20957;DHT22;10637;47.970;7.830;2023-06-04T08:05:24;23.00;99.90
20957;DHT22;10637;47.970;7.830;2023-06-04T08:10:25;22.70;99.90
20957;DHT22;10637;47.970;7.830;2023-06-04T08:15:27;23.00;99.90
20957;DHT22;10637;47.970;7.830;2023-06-04T08:20:29;23.30;99.90
20957;DHT22;10637;47.970;7.830;2023-06-04T08:25:31;23.00;99.90
20957;DHT22;10637;47.970;7.830;2023-06-04T08:30:35;22.70;99.90
20957;DHT22;10637;47.970;7.830;2023-06-04T08:35:37;22.50;99.90
20957;DHT22;10637;47.970;7.830;2023-06-04T08:40:39;22.20;99.90
20957;DHT22;10637;47.970;7.830;2023-06-04T08:45:43;22.10;99.90
20957;DHT22;10637;47.970;7.830;2023-06-04T08:50:48;22.00;99.90
20957;DHT22;10637;47.970;7.830;2023-06-04T08:55:50;22.00;99.90
20957;DHT22;10637;47.970;7.830;2023-06-04T09:00:54;22.00;99.90
20957;DHT22;10637;47.970;7.830;2023-06-04T09:05:57;21.70;99.90
20957;DHT22;10637;47.970;7.830;2023-06-04T09:11:02;21.90;99.90
20957;DHT22;10637;47.970;7.830;2023-06-04T09:16:06;21.70;99.90
20957;DHT22;10637;47.970;7.830;2023-06-04T09:21:09;22.20;99.90
20957;DHT22;10637;47.970;7.830;2023-06-04T09:26:11;22.40;99.90
20957;DHT22;10637;47.970;7.830;2023-06-04T09:31:16;22.80;99.90
20957;DHT22;10637;47.970;7.830;2023-06-04T09:36:18;23.30;99.90
20957;DHT22;10637;47.970;7.830;2023-06-04T09:41:21;23.70;99.90
20957;DHT22;10637;47.970;7.830;2023-06-04T09:46:26;24.50;99.90
20957;DHT22;10637;47.970;7.830;2023-06-04T09:51:29;24.90;99.90
20957;DHT22;10637;47.970;7.830;2023-06-04T09:56:39;25.40;99.90
20957;DHT22;10637;47.970;7.830;2023-06-04T10:01:41;25.60;99.40
20957;DHT22;10637;47.970;7.830;2023-06-04T10:06:44;26.00;99.20
20957;DHT22;10637;47.970;7.830;2023-06-04T10:11:52;26.00;99.20
20957;DHT22;10637;47.970;7.830;2023-06-04T10:16:58;25.60;99.90
20957;DHT22;10637;47.970;7.830;2023-06-04T10:22:01;26.00;99.50
20957;DHT22;10637;47.970;7.830;2023-06-04T10:27:04;26.30;98.60
20957;DHT22;10637;47.970;7.830;2023-06-04T10:32:12;26.20;99.20
20957;DHT22;10637;47.970;7.830;2023-06-04T10:37:25;26.10;97.90
20957;DHT22;10637;47.970;7.830;2023-06-04T10:42:38;25.90;99.30
20957;DHT22;10637;47.970;7.830;2023-06-04T10:47:40;25.90;98.80
20957;DHT22;10637;47.970;7.830;2023-06-04T10:52:53;26.00;98.70
20957;DHT22;10637;47.970;7.830;2023-06-04T10:58:00;26.40;99.00
20957;DHT22;10637;47.970;7.830;2023-06-04T11:03:05;26.30;98.10
20957;DHT22;10637;47.970;7.830;2023-06-04T11:08:12;26.20;98.10
20957;DHT22;10637;47.970;7.830;2023-06-04T11:13:25;26.50;99.00
20957;DHT22;10637;47.970;7.830;2023-06-04T11:18:27;26.90;97.70
20957;DHT22;10637;47.970;7.830;2023-06-04T11:23:29;27.10;97.20
20957;DHT22;10637;47.970;7.830;2023-06-04T11:28:32;27.00;97.20
20957;DHT22;10637;47.970;7.830;2023-06-04T11:33:44;26.80;96.40
20957;DHT22;10637;47.970;7.830;2023-06-04T11:38:54;26.90;97.60
20957;DHT22;10637;47.970;7.830;2023-06-04T11:43:57;27.50;96.60
20957;DHT22;10637;47.970;7.830;2023-06-04T11:49:00;27.70;96.50
20957;DHT22;10637;47.970;7.830;2023-06-04T11:54:03;27.80;95.70
20957;DHT22;10637;47.970;7.830;2023-06-04T11:59:05;28.20;95.00
20957;DHT22;10637;47.970;7.830;2023-06-04T12:04:18;28.50;96.30
20957;DHT22;10637;47.970;7.830;2023-06-04T12:09:25;29.00;96.00
20957;DHT22;10637;47.970;7.830;2023-06-04T12:14:29;29.30;95.20
20957;DHT22;10637;47.970;7.830;2023-06-04T12:19:31;29.10;94.50
20957;DHT22;10637;47.970;7.830;2023-06-04T12:24:45;29.00;94.60
20957;DHT22;10637;47.970;7.830;2023-06-04T12:30:01;29.20;93.70
20957;DHT22;10637;47.970;7.830;2023-06-04T12:35:04;29.70;93.10
20957;DHT22;10637;47.970;7.830;2023-06-04T12:40:07;29.90;92.80
20957;DHT22;10637;47.970;7.830;2023-06-04T12:45:10;30.30;92.20
20957;DHT22;10637;47.970;7.830;2023-06-04T12:50:14;30.30;91.70
20957;DHT22;10637;47.970;7.830;2023-06-04T12:55:16;30.00;91.80
20957;DHT22;10637;47.970;7.830;2023-06-04T13:00:17;30.30;92.00
20957;DHT22;10637;47.970;7.830;2023-06-04T13:05:19;30.40;92.10
20957;DHT22;10637;47.970;7.830;2023-06-04T13:10:21;30.60;92.00
20957;DHT22;10637;47.970;7.830;2023-06-04T13:15:23;30.50;93.40
20957;DHT22;10637;47.970;7.830;2023-06-04T13:20:25;30.40;92.40
20957;DHT22;10637;47.970;7.830;2023-06-04T13:25:26;30.60;92.70
20957;DHT22;10637;47.970;7.830;2023-06-04T13:30:30;30.90;92.50
20957;DHT22;10637;47.970;7.830;2023-06-04T13:35:32;31.20;92.90
20957;DHT22;10637;47.970;7.830;2023-06-04T13:40:34;31.30;92.80
20957;DHT22;10637;47.970;7.830;2023-06-04T13:45:37;31.40;91.80
20957;DHT22;10637;47.970;7.830;2023-06-04T13:50:39;30.90;91.90
20957;DHT22;10637;47.970;7.830;2023-06-04T13:55:41;31.00;91.90
20957;DHT22;10637;47.970;7.830;2023-06-04T14:00:43;30.80;90.90
20957;DHT22;10637;47.970;7.830;2023-06-04T14:05:44;30.60;91.60
20957;DHT22;10637;47.970;7.830;2023-06-04T14:10:46;30.70;91.70
20957;DHT22;10637;47.970;7.830;2023-06-04T14:15:48;30.50;92.30
20957;DHT22;10637;47.970;7.830;2023-06-04T14:20:50;30.70;91.70
20957;DHT22;10637;47.970;7.830;2023-06-04T14:25:52;30.90;91.60
20957;DHT22;10637;47.970;7.830;2023-06-04T14:30:54;31.00;91.90
20957;DHT22;10637;47.970;7.830;2023-06-04T14:35:57;30.70;91.30
20957;DHT22;10637;47.970;7.830;2023-06-04T14:40:59;30.80;91.00
20957;DHT22;10637;47.970;7.830;2023-06-04T14:46:01;30.40;90.30
20957;DHT22;10637;47.970;7.830;2023-06-04T14:51:03;30.60;89.60
20957;DHT22;10637;47.970;7.830;2023-06-04T14:56:05;31.00;87.70
20957;DHT22;10637;47.970;7.830;2023-06-04T15:01:07;30.70;85.70
20957;DHT22;10637;47.970;7.830;2023-06-04T15:06:11;31.00;84.50
20957;DHT22;10637;47.970;7.830;2023-06-04T15:11:20;31.00;81.60
20957;DHT22;10637;47.970;7.830;2023-06-04T15:16:23;30.80;81.90
20957;DHT22;10637;47.970;7.830;2023-06-04T15:21:25;30.40;82.60
20957;DHT22;10637;47.970;7.830;2023-06-04T15:26:27;30.40;82.20
20957;DHT22;10637;47.970;7.830;2023-06-04T15:31:31;30.50;81.20
20957;DHT22;10637;47.970;7.830;2023-06-04T15:36:33;30.30;80.30
20957;DHT22;10637;47.970;7.830;2023-06-04T15:41:35;30.70;78.30
20957;DHT22;10637;47.970;7.830;2023-06-04T15:46:37;30.80;79.60
20957;DHT22;10637;47.970;7.830;2023-06-04T15:51:39;30.70;78.80
20957;DHT22;10637;47.970;7.830;2023-06-04T15:56:41;29.60;76.60
20957;DHT22;10637;47.970;7.830;2023-06-04T16:01:43;29.90;76.00
20957;DHT22;10637;47.970;7.830;2023-06-04T16:06:46;29.90;78.90
20957;DHT22;10637;47.970;7.830;2023-06-04T16:11:48;30.00;76.30
20957;DHT22;10637;47.970;7.830;2023-06-04T16:16:50;30.10;78.80
20957;DHT22;10637;47.970;7.830;2023-06-04T16:21:52;29.60;78.90
20957;DHT22;10637;47.970;7.830;2023-06-04T16:26:53;29.30;80.10
20957;DHT22;10637;47.970;7.830;2023-06-04T16:31:56;28.50;79.10
20957;DHT22;10637;47.970;7.830;2023-06-04T16:36:57;28.30;75.40
20957;DHT22;10637;47.970;7.830;2023-06-04T16:41:59;27.00;77.10
20957;DHT22;10637;47.970;7.830;2023-06-04T16:47:04;26.40;75.40
20957;DHT22;10637;47.970;7.830;2023-06-04T16:52:06;26.20;78.40
20957;DHT22;10637;47.970;7.830;2023-06-04T16:57:09;25.70;78.70
20957;DHT22;10637;47.970;7.830;2023-06-04T17:02:11;26.20;79.20
20957;DHT22;10637;47.970;7.830;2023-06-04T17:07:13;26.40;78.20
20957;DHT22;10637;47.970;7.830;2023-06-04T17:12:15;25.90;80.20
20957;DHT22;10637;47.970;7.830;2023-06-04T17:17:17;25.90;78.00
20957;DHT22;10637;47.970;7.830;2023-06-04T17:22:19;25.70;79.50
20957;DHT22;10637;47.970;7.830;2023-06-04T17:27:20;25.30;80.00
20957;DHT22;10637;47.970;7.830;2023-06-04T17:32:22;25.00;82.10
20957;DHT22;10637;47.970;7.830;2023-06-04T17:37:24;25.10;80.60
20957;DHT22;10637;47.970;7.830;2023-06-04T17:42:26;25.20;83.00
20957;DHT22;10637;47.970;7.830;2023-06-04T17:47:28;24.90;82.00
20957;DHT22;10637;47.970;7.830;2023-06-04T17:52:29;24.80;80.80
20957;DHT22;10637;47.970;7.830;2023-06-04T17:57:31;24.80;83.20
20957;DHT22;10637;47.970;7.830;2023-06-04T18:02:33;24.90;84.50
20957;DHT22;10637;47.970;7.830;2023-06-04T18:07:35;24.80;83.40
20957;DHT22;10637;47.970;7.830;2023-06-04T18:12:37;24.80;82.60
20957;DHT22;10637;47.970;7.830;2023-06-04T18:17:39;24.70;84.40
20957;DHT22;10637;47.970;7.830;2023-06-04T18:22:41;24.40;85.60
20957;DHT22;10637;47.970;7.830;2023-06-04T18:27:43;24.40;86.40
20957;DHT22;10637;47.970;7.830;2023-06-04T18:32:45;24.10;90.00
20957;DHT22;10637;47.970;7.830;2023-06-04T18:37:49;23.60;90.30
20957;DHT22;10637;47.970;7.830;2023-06-04T18:42:51;23.70;90.50
20957;DHT22;10637;47.970;7.830;2023-06-04T18:47:53;23.90;90.80
20957;DHT22;10637;47.970;7.830;2023-06-04T18:52:55;23.90;91.40
20957;DHT22;10637;47.970;7.830;2023-06-04T18:57:57;23.70;91.60
20957;DHT22;10637;47.970;7.830;2023-06-04T19:02:58;23.30;92.90
20957;DHT22;10637;47.970;7.830;2023-06-04T19:08:00;23.00;93.40
20957;DHT22;10637;47.970;7.830;2023-06-04T19:13:02;22.50;94.80
20957;DHT22;10637;47.970;7.830;2023-06-04T19:18:04;22.00;95.40
20957;DHT22;10637;47.970;7.830;2023-06-04T19:23:06;21.80;96.00
20957;DHT22;10637;47.970;7.830;2023-06-04T19:28:08;21.50;96.10
20957;DHT22;10637;47.970;7.830;2023-06-04T19:33:13;21.30;97.00
20957;DHT22;10637;47.970;7.830;2023-06-04T19:38:15;21.10;96.80
20957;DHT22;10637;47.970;7.830;2023-06-04T19:43:17;20.90;97.70
20957;DHT22;10637;47.970;7.830;2023-06-04T19:48:19;20.90;97.70
20957;DHT22;10637;47.970;7.830;2023-06-04T19:53:21;20.70;98.10
20957;DHT22;10637;47.970;7.830;2023-06-04T19:58:23;20.50;98.90
20957;DHT22;10637;47.970;7.830;2023-06-04T20:03:27;20.30;99.20
20957;DHT22;10637;47.970;7.830;2023-06-04T20:08:32;20.20;99.50
20957;DHT22;10637;47.970;7.830;2023-06-04T20:13:35;20.10;99.90
20957;DHT22;10637;47.970;7.830;2023-06-04T20:18:37;19.90;99.80
20957;DHT22;10637;47.970;7.830;2023-06-04T20:23:38;19.80;99.90
20957;DHT22;10637;47.970;7.830;2023-06-04T20:28:40;19.70;99.90
20957;DHT22;10637;47.970;7.830;2023-06-04T20:33:42;19.50;99.90
20957;DHT22;10637;47.970;7.830;2023-06-04T20:38:44;19.40;99.90
20957;DHT22;10637;47.970;7.830;2023-06-04T20:48:48;19.20;99.90
20957;DHT22;10637;47.970;7.830;2023-06-04T20:53:50;19.00;99.90
20957;DHT22;10637;47.970;7.830;2023-06-04T20:58:52;19.00;99.90
20957;DHT22;10637;47.970;7.830;2023-06-04T21:03:54;18.90;99.90
20957;DHT22;10637;47.970;7.830;2023-06-04T21:08:59;18.80;99.90
20957;DHT22;10637;47.970;7.830;2023-06-04T21:14:01;18.90;99.90
20957;DHT22;10637;47.970;7.830;2023-06-04T21:19:04;18.90;99.90
20957;DHT22;10637;47.970;7.830;2023-06-04T21:24:06;18.90;99.90
20957;DHT22;10637;47.970;7.830;2023-06-04T21:29:08;18.70;99.90
20957;DHT22;10637;47.970;7.830;2023-06-04T21:34:10;18.70;99.90
20957;DHT22;10637;47.970;7.830;2023-06-04T21:39:12;18.70;99.90
20957;DHT22;10637;47.970;7.830;2023-06-04T21:44:13;18.80;99.90
20957;DHT22;10637;47.970;7.830;2023-06-04T21:49:15;18.80;99.90
20957;DHT22;10637;47.970;7.830;2023-06-04T21:54:17;18.80;99.90
20957;DHT22;10637;47.970;7.830;2023-06-04T21:59:19;18.70;99.90
20957;DHT22;10637;47.970;7.830;2023-06-04T22:04:21;18.60;99.90
20957;DHT22;10637;47.970;7.830;2023-06-04T22:09:24;18.70;99.90
20957;DHT22;10637;47.970;7.830;2023-06-04T22:14:27;18.40;99.90
20957;DHT22;10637;47.970;7.830;2023-06-04T22:19:29;18.60;99.90
20957;DHT22;10637;47.970;7.830;2023-06-04T22:24:31;18.60;99.90
20957;DHT22;10637;47.970;7.830;2023-06-04T22:29:32;18.60;99.90
20957;DHT22;10637;47.970;7.830;2023-06-04T22:34:34;18.50;99.90
20957;DHT22;10637;47.970;7.830;2023-06-04T22:39:36;18.40;99.90
20957;DHT22;10637;47.970;7.830;2023-06-04T22:44:38;18.40;99.90
20957;DHT22;10637;47.970;7.830;2023-06-04T22:49:39;18.40;99.90
20957;DHT22;10637;47.970;7.830;2023-06-04T22:54:41;18.20;99.90
20957;DHT22;10637;47.970;7.830;2023-06-04T22:59:43;18.10;99.90
20957;DHT22;10637;47.970;7.830;2023-06-04T23:04:45;18.00;99.90
20957;DHT22;10637;47.970;7.830;2023-06-04T23:09:47;17.80;99.90
20957;DHT22;10637;47.970;7.830;2023-06-04T23:14:49;17.70;99.90
20957;DHT22;10637;47.970;7.830;2023-06-04T23:19:51;17.70;99.90
20957;DHT22;10637;47.970;7.830;2023-06-04T23:24:52;17.60;99.90
20957;DHT22;10637;47.970;7.830;2023-06-04T23:29:55;17.30;99.90
20957;DHT22;10637;47.970;7.830;2023-06-04T23:34:57;17.30;99.90
20957;DHT22;10637;47.970;7.830;2023-06-04T23:39:58;17.30;99.90
20957;DHT22;10637;47.970;7.830;2023-06-04T23:45:00;17.10;99.90
20957;DHT22;10637;47.970;7.830;2023-06-04T23:50:02;16.90;99.90
20957;DHT22;10637;47.970;7.830;2023-06-04T23:55:04;16.60;99.90
